createdAt,value
2018-06-04T00:00:17.851Z,86.00
2018-06-04T00:01:17.804Z,86.68
2018-06-04T00:02:17.853Z,86.77
2018-06-04T00:03:17.862Z,86.96
2018-06-04T00:04:17.900Z,87.16
2018-06-04T00:05:17.922Z,86.87
2018-06-04T00:06:17.952Z,87.26
2018-06-04T00:07:17.992Z,87.54
2018-06-04T00:08:18.019Z,87.26
2018-06-04T00:09:18.045Z,87.64
2018-06-04T00:10:18.073Z,87.74
2018-06-04T00:11:18.104Z,88.02
2018-06-04T00:12:18.133Z,88.02
2018-06-04T00:13:18.168Z,87.64
2018-06-04T00:14:18.188Z,86.87
2018-06-04T00:15:18.223Z,87.35
2018-06-04T00:16:18.251Z,87.16
2018-06-04T00:17:18.288Z,87.54
2018-06-04T00:18:18.312Z,87.74
2018-06-04T00:19:18.343Z,87.93
2018-06-04T00:20:18.369Z,88.02
2018-06-04T00:21:18.397Z,87.83
2018-06-04T00:22:18.428Z,87.64
2018-06-04T00:23:18.460Z,87.35
2018-06-04T00:24:18.491Z,87.16
2018-06-04T00:25:18.517Z,87.74
2018-06-04T00:26:18.547Z,87.45
2018-06-04T00:27:18.585Z,88.12
2018-06-04T00:28:18.609Z,87.54
2018-06-04T00:29:18.637Z,87.83
2018-06-04T00:30:18.666Z,87.83
2018-06-04T00:31:18.698Z,86.77
2018-06-04T00:32:18.775Z,87.83
2018-06-04T00:33:18.756Z,87.83
2018-06-04T00:34:18.790Z,88.02
2018-06-04T00:35:18.832Z,86.68
2018-06-04T00:36:18.860Z,87.93
2018-06-04T00:37:18.873Z,88.02
2018-06-04T00:38:18.903Z,87.35
2018-06-04T00:39:18.938Z,88.02
2018-06-04T00:40:18.975Z,88.02
2018-06-04T00:41:19.004Z,87.64
2018-06-04T00:42:19.027Z,87.83
2018-06-04T00:43:19.060Z,87.83
2018-06-04T00:44:19.088Z,87.83
2018-06-04T00:45:19.115Z,87.74
2018-06-04T00:46:19.143Z,88.02
2018-06-04T00:47:19.175Z,87.35
2018-06-04T00:48:19.207Z,88.31
2018-06-04T00:49:20.019Z,87.93
2018-06-04T00:50:19.261Z,87.83
2018-06-04T00:51:19.385Z,88.22
2018-06-04T00:52:19.325Z,88.17
2018-06-04T00:53:19.355Z,87.83
2018-06-04T00:54:19.384Z,88.31
2018-06-04T00:55:19.416Z,88.41
2018-06-04T00:56:19.445Z,87.83
2018-06-04T00:57:19.471Z,88.08
2018-06-04T00:58:19.504Z,87.98
2018-06-04T00:59:19.536Z,88.08
2018-06-04T01:00:19.675Z,87.98
2018-06-04T01:01:19.603Z,88.46
2018-06-04T01:02:19.627Z,87.98
2018-06-04T01:03:19.661Z,87.79
2018-06-04T01:04:19.684Z,88.95
2018-06-04T01:05:19.712Z,88.27
2018-06-04T01:06:19.745Z,88.27
2018-06-04T01:07:19.772Z,88.85
2018-06-04T01:08:19.801Z,88.75
2018-06-04T01:09:19.832Z,88.65
2018-06-04T01:10:19.865Z,88.75
2018-06-04T01:11:19.903Z,88.65
2018-06-04T01:12:19.926Z,88.56
2018-06-04T01:13:19.952Z,88.46
2018-06-04T01:14:19.984Z,88.46
2018-06-04T01:15:20.016Z,88.85
2018-06-04T01:16:20.038Z,88.65
2018-06-04T01:17:20.065Z,88.75
2018-06-04T01:18:20.095Z,88.27
2018-06-04T01:19:20.128Z,88.75
2018-06-04T01:20:20.179Z,88.95
2018-06-04T01:21:20.186Z,88.56
2018-06-04T01:22:20.220Z,88.27
2018-06-04T01:23:20.253Z,88.95
2018-06-04T01:24:20.276Z,89.04
2018-06-04T01:25:20.309Z,88.95
2018-06-04T01:26:20.353Z,89.43
2018-06-04T01:27:20.362Z,89.33
2018-06-04T01:28:20.402Z,89.04
2018-06-04T01:29:20.425Z,88.85
2018-06-04T01:30:20.455Z,88.95
2018-06-04T01:31:20.486Z,89.14
2018-06-04T01:32:20.517Z,88.95
2018-06-04T01:33:20.545Z,89.04
2018-06-04T01:34:20.572Z,89.23
2018-06-04T01:35:20.618Z,88.95
2018-06-04T01:36:20.633Z,89.04
2018-06-04T01:37:20.660Z,89.81
2018-06-04T01:38:20.692Z,89.14
2018-06-04T01:39:20.753Z,89.72
2018-06-04T01:40:20.755Z,89.14
2018-06-04T01:41:20.785Z,89.91
2018-06-04T01:42:20.812Z,89.91
2018-06-04T01:43:20.844Z,89.81
2018-06-04T01:44:20.892Z,89.81
2018-06-04T01:45:20.901Z,89.53
2018-06-04T01:46:20.935Z,89.62
2018-06-04T01:47:20.961Z,89.62
2018-06-04T01:48:20.989Z,88.85
2018-06-04T01:49:21.018Z,90.00
2018-06-04T01:50:21.056Z,89.48
2018-06-04T01:51:21.088Z,90.00
2018-06-04T01:52:21.106Z,89.91
2018-06-04T01:53:21.145Z,90.10
2018-06-04T01:54:21.164Z,89.81
2018-06-04T01:55:21.220Z,89.81
2018-06-04T01:56:21.229Z,89.81
2018-06-04T01:57:21.255Z,89.58
2018-06-04T01:58:21.290Z,89.77
2018-06-04T01:59:21.322Z,89.58
2018-06-04T02:00:21.408Z,89.58
2018-06-04T02:01:21.373Z,89.77
2018-06-04T02:02:21.413Z,90.16
2018-06-04T02:03:21.435Z,90.20
2018-06-04T02:04:21.464Z,89.77
2018-06-04T02:05:21.497Z,89.86
2018-06-04T02:06:21.521Z,89.86
2018-06-04T02:07:21.554Z,90.16
2018-06-04T02:08:21.591Z,90.30
2018-06-04T02:09:21.609Z,90.25
2018-06-04T02:10:21.641Z,89.96
2018-06-04T02:11:21.682Z,89.86
2018-06-04T02:12:21.701Z,90.16
2018-06-04T02:13:21.731Z,89.96
2018-06-04T02:14:21.760Z,90.25
2018-06-04T02:15:21.789Z,90.92
2018-06-04T02:16:21.823Z,90.06
2018-06-04T02:17:21.849Z,90.06
2018-06-04T02:18:21.885Z,90.92
2018-06-04T02:19:21.909Z,91.02
2018-06-04T02:20:22.014Z,90.54
2018-06-04T02:21:21.984Z,90.34
2018-06-04T02:22:22.028Z,90.64
2018-06-04T02:23:22.035Z,90.54
2018-06-04T02:24:22.061Z,90.34
2018-06-04T02:25:22.101Z,90.54
2018-06-04T02:26:22.120Z,90.73
2018-06-04T02:27:22.271Z,90.64
2018-06-04T02:28:22.183Z,90.64
2018-06-04T02:29:22.222Z,90.64
2018-06-04T02:30:22.241Z,90.64
2018-06-04T02:31:22.268Z,90.83
2018-06-04T02:32:22.306Z,90.92
2018-06-04T02:33:22.322Z,90.92
2018-06-04T02:34:22.362Z,90.73
2018-06-04T02:35:22.404Z,90.64
2018-06-04T02:36:22.422Z,90.64
2018-06-04T02:37:22.443Z,90.54
2018-06-04T02:38:22.470Z,90.83
2018-06-04T02:39:22.501Z,90.54
2018-06-04T02:40:22.538Z,91.02
2018-06-04T02:41:22.559Z,90.54
2018-06-04T02:42:22.590Z,90.64
2018-06-04T02:43:22.626Z,90.64
2018-06-04T02:44:22.648Z,90.64
2018-06-04T02:45:22.678Z,90.92
2018-06-04T02:46:22.709Z,90.73
2018-06-04T02:47:22.736Z,90.83
2018-06-04T02:48:22.768Z,90.34
2018-06-04T02:49:22.794Z,90.73
2018-06-04T02:50:22.827Z,90.25
2018-06-04T02:51:22.856Z,90.73
2018-06-04T02:52:22.884Z,91.31
2018-06-04T02:53:22.915Z,91.12
2018-06-04T02:54:22.942Z,91.31
2018-06-04T02:55:22.987Z,91.21
2018-06-04T02:56:23.029Z,91.31
2018-06-04T02:57:23.036Z,91.02
2018-06-04T02:58:23.064Z,91.21
2018-06-04T02:59:23.101Z,91.02
2018-06-04T03:00:23.171Z,91.21
2018-06-04T03:01:23.151Z,91.21
2018-06-04T03:02:23.183Z,91.02
2018-06-04T03:03:23.212Z,90.92
2018-06-04T03:04:23.243Z,91.02
2018-06-04T03:05:23.271Z,90.64
2018-06-04T03:06:23.305Z,91.02
2018-06-04T03:07:23.336Z,91.89
2018-06-04T03:08:23.357Z,90.92
2018-06-04T03:09:23.386Z,91.12
2018-06-04T03:10:23.416Z,92.08
2018-06-04T03:11:23.457Z,91.21
2018-06-04T03:12:23.487Z,91.60
2018-06-04T03:13:23.502Z,91.12
2018-06-04T03:14:23.534Z,91.41
2018-06-04T03:15:23.574Z,91.41
2018-06-04T03:16:23.599Z,91.31
2018-06-04T03:17:23.625Z,91.89
2018-06-04T03:18:23.653Z,91.21
2018-06-04T03:19:23.684Z,91.31
2018-06-04T03:20:24.563Z,91.79
2018-06-04T03:21:23.745Z,91.69
2018-06-04T03:22:23.783Z,91.31
2018-06-04T03:23:23.812Z,91.31
2018-06-04T03:24:23.838Z,91.21
2018-06-04T03:25:23.864Z,91.12
2018-06-04T03:26:23.891Z,91.31
2018-06-04T03:27:23.927Z,91.60
2018-06-04T03:28:23.948Z,91.50
2018-06-04T03:29:23.982Z,91.50
2018-06-04T03:30:24.020Z,91.41
2018-06-04T03:31:24.144Z,91.50
2018-06-04T03:32:24.069Z,91.60
2018-06-04T03:33:24.093Z,91.60
2018-06-04T03:34:24.126Z,91.60
2018-06-04T03:35:24.161Z,91.50
2018-06-04T03:36:24.188Z,91.50
2018-06-04T03:37:24.213Z,91.69
2018-06-04T03:38:24.246Z,91.27
2018-06-04T03:39:24.274Z,92.37
2018-06-04T03:40:24.307Z,92.37
2018-06-04T03:41:24.339Z,91.79
2018-06-04T03:42:24.358Z,91.79
2018-06-04T03:43:24.395Z,91.69
2018-06-04T03:44:24.432Z,91.60
2018-06-04T03:45:24.445Z,91.60
2018-06-04T03:46:24.483Z,91.69
2018-06-04T03:47:24.516Z,91.60
2018-06-04T03:48:24.540Z,91.12
2018-06-04T03:49:24.571Z,91.12
2018-06-04T03:50:24.595Z,91.41
2018-06-04T03:51:24.631Z,91.60
2018-06-04T03:52:24.662Z,91.89
2018-06-04T03:53:24.687Z,91.41
2018-06-04T03:54:24.721Z,91.31
2018-06-04T03:55:24.756Z,91.21
2018-06-04T03:56:24.779Z,92.08
2018-06-04T03:57:24.814Z,91.02
2018-06-04T03:58:24.837Z,91.41
2018-06-04T03:59:24.867Z,91.02
2018-06-04T04:00:24.895Z,91.12
2018-06-04T04:01:24.930Z,91.12
2018-06-04T04:02:24.954Z,91.79
2018-06-04T04:03:24.982Z,91.79
2018-06-04T04:04:25.013Z,91.02
2018-06-04T04:05:25.040Z,90.54
2018-06-04T04:06:25.073Z,90.92
2018-06-04T04:07:25.104Z,91.12
2018-06-04T04:08:25.139Z,92.08
2018-06-04T04:09:25.172Z,91.02
2018-06-04T04:10:25.193Z,91.02
2018-06-04T04:11:25.215Z,91.12
2018-06-04T04:12:25.244Z,91.12
2018-06-04T04:13:25.284Z,90.83
2018-06-04T04:14:25.305Z,90.25
2018-06-04T04:15:25.340Z,90.54
2018-06-04T04:16:25.365Z,90.64
2018-06-04T04:17:25.392Z,90.64
2018-06-04T04:18:25.423Z,90.68
2018-06-04T04:19:25.452Z,90.54
2018-06-04T04:20:25.493Z,90.54
2018-06-04T04:21:25.513Z,90.39
2018-06-04T04:22:25.548Z,90.78
2018-06-04T04:23:25.576Z,90.68
2018-06-04T04:24:25.600Z,90.88
2018-06-04T04:25:25.641Z,89.62
2018-06-04T04:26:25.659Z,90.20
2018-06-04T04:27:25.692Z,90.10
2018-06-04T04:28:25.720Z,89.81
2018-06-04T04:29:25.749Z,88.85
2018-06-04T04:30:25.793Z,88.56
2018-06-04T04:31:26.040Z,88.46
2018-06-04T04:32:25.847Z,87.79
2018-06-04T04:33:25.872Z,87.74
2018-06-04T04:34:25.896Z,88.37
2018-06-04T04:35:25.929Z,89.28
2018-06-04T04:36:25.956Z,89.67
2018-06-04T04:37:25.991Z,88.95
2018-06-04T04:38:26.016Z,89.86
2018-06-04T04:39:26.056Z,89.57
2018-06-04T04:40:26.159Z,89.67
2018-06-04T04:41:26.104Z,89.09
2018-06-04T04:42:26.141Z,89.62
2018-06-04T04:43:26.182Z,89.14
2018-06-04T04:44:26.194Z,89.14
2018-06-04T04:45:26.226Z,88.95
2018-06-04T04:46:26.252Z,88.95
2018-06-04T04:47:26.284Z,89.09
2018-06-04T04:48:26.319Z,89.18
2018-06-04T04:49:26.345Z,89.43
2018-06-04T04:50:26.377Z,89.23
2018-06-04T04:51:26.421Z,89.09
2018-06-04T04:52:26.440Z,88.27
2018-06-04T04:53:26.462Z,88.89
2018-06-04T04:54:26.491Z,89.67
2018-06-04T04:55:26.523Z,89.37
2018-06-04T04:56:26.555Z,88.89
2018-06-04T04:57:26.597Z,88.79
2018-06-04T04:58:26.612Z,88.79
2018-06-04T04:59:26.648Z,88.41
2018-06-04T05:00:26.681Z,87.16
2018-06-04T05:01:26.706Z,86.96
2018-06-04T05:02:26.731Z,86.87
2018-06-04T05:03:26.762Z,86.58
2018-06-04T05:04:26.797Z,87.93
2018-06-04T05:05:26.821Z,87.83
2018-06-04T05:06:26.870Z,87.74
2018-06-04T05:07:26.877Z,86.58
2018-06-04T05:08:26.908Z,87.26
2018-06-04T05:09:26.939Z,87.93
2018-06-04T05:10:26.966Z,87.54
2018-06-04T05:11:27.000Z,87.16
2018-06-04T05:12:27.033Z,86.58
2018-06-04T05:13:27.054Z,86.58
2018-06-04T05:14:27.097Z,87.74
2018-06-04T05:15:27.126Z,87.83
2018-06-04T05:16:27.165Z,88.89
2018-06-04T05:17:27.176Z,88.45
2018-06-04T05:18:27.204Z,88.07
2018-06-04T05:19:27.239Z,87.16
2018-06-04T05:20:27.272Z,87.40
2018-06-04T05:21:27.301Z,87.20
2018-06-04T05:22:27.336Z,86.62
2018-06-04T05:23:27.372Z,87.01
2018-06-04T05:24:27.390Z,86.43
2018-06-04T05:25:27.411Z,86.91
2018-06-04T05:26:27.443Z,86.62
2018-06-04T05:27:27.470Z,85.85
2018-06-04T05:28:27.507Z,85.75
2018-06-04T05:29:27.534Z,85.75
2018-06-04T05:30:27.566Z,85.75
2018-06-04T05:31:27.601Z,85.85
2018-06-04T05:32:27.629Z,85.66
2018-06-04T05:33:27.652Z,85.66
2018-06-04T05:34:27.774Z,85.27
2018-06-04T05:35:27.714Z,84.59
2018-06-04T05:36:27.743Z,85.46
2018-06-04T05:37:27.771Z,85.08
2018-06-04T05:38:27.809Z,85.37
2018-06-04T05:39:27.840Z,85.17
2018-06-04T05:40:27.866Z,85.17
2018-06-04T05:41:27.904Z,84.69
2018-06-04T05:42:27.933Z,83.96
2018-06-04T05:43:27.952Z,84.35
2018-06-04T05:44:27.982Z,83.58
2018-06-04T05:45:28.014Z,84.21
2018-06-04T05:46:28.043Z,84.44
2018-06-04T05:47:28.075Z,83.73
2018-06-04T05:48:28.109Z,84.06
2018-06-04T05:49:28.135Z,83.87
2018-06-04T05:50:28.179Z,84.83
2018-06-04T05:51:28.231Z,84.44
2018-06-04T05:52:28.222Z,84.16
2018-06-04T05:53:28.253Z,84.16
2018-06-04T05:54:28.292Z,83.77
2018-06-04T05:55:28.316Z,83.96
2018-06-04T05:56:28.346Z,83.67
2018-06-04T05:57:28.395Z,83.77
2018-06-04T05:58:28.417Z,84.74
2018-06-04T05:59:28.435Z,84.06
2018-06-04T06:00:28.461Z,83.77
2018-06-04T06:01:28.488Z,83.48
2018-06-04T06:02:28.517Z,83.48
2018-06-04T06:03:28.554Z,83.58
2018-06-04T06:04:28.574Z,83.96
2018-06-04T06:05:28.619Z,83.67
2018-06-04T06:06:28.645Z,83.39
2018-06-04T06:07:28.673Z,83.19
2018-06-04T06:08:28.705Z,84.16
2018-06-04T06:09:28.735Z,83.29
2018-06-04T06:10:28.761Z,82.51
2018-06-04T06:11:28.802Z,82.51
2018-06-04T06:12:28.823Z,82.81
2018-06-04T06:13:28.877Z,82.51
2018-06-04T06:14:28.929Z,82.61
2018-06-04T06:15:28.933Z,82.90
2018-06-04T06:16:28.950Z,82.71
2018-06-04T06:17:28.973Z,82.42
2018-06-04T06:18:28.997Z,82.42
2018-06-04T06:19:29.043Z,82.75
2018-06-04T06:20:29.064Z,81.40
2018-06-04T06:21:29.096Z,82.26
2018-06-04T06:22:29.120Z,82.56
2018-06-04T06:23:29.155Z,82.94
2018-06-04T06:24:29.184Z,82.75
2018-06-04T06:25:29.284Z,82.36
2018-06-04T06:26:29.238Z,82.17
2018-06-04T06:27:29.272Z,82.46
2018-06-04T06:28:29.311Z,83.04
2018-06-04T06:29:29.330Z,83.33
2018-06-04T06:30:29.361Z,82.36
2018-06-04T06:31:29.426Z,82.07
2018-06-04T06:32:29.423Z,81.78
2018-06-04T06:33:29.456Z,79.66
2018-06-04T06:34:29.482Z,79.47
2018-06-04T06:35:29.517Z,79.17
2018-06-04T06:36:29.552Z,80.53
2018-06-04T06:37:29.573Z,78.21
2018-06-04T06:38:29.606Z,77.53
2018-06-04T06:39:29.630Z,78.11
2018-06-04T06:40:30.626Z,77.83
2018-06-04T06:41:29.700Z,78.50
2018-06-04T06:42:29.724Z,78.50
2018-06-04T06:43:29.750Z,79.37
2018-06-04T06:44:29.799Z,79.75
2018-06-04T06:45:29.815Z,80.33
2018-06-04T06:46:29.840Z,80.91
2018-06-04T06:47:29.881Z,77.73
2018-06-04T06:48:29.902Z,76.95
2018-06-04T06:49:29.932Z,76.47
2018-06-04T06:50:29.967Z,76.76
2018-06-04T06:51:30.000Z,77.25
2018-06-04T06:52:30.023Z,77.34
2018-06-04T06:53:30.053Z,78.99
2018-06-04T06:54:30.102Z,77.63
2018-06-04T06:55:30.170Z,76.76
2018-06-04T06:56:30.143Z,76.37
2018-06-04T06:57:30.178Z,76.57
2018-06-04T06:58:30.201Z,76.09
2018-06-04T06:59:30.230Z,76.22
2018-06-04T07:00:30.273Z,77.00
2018-06-04T07:01:30.296Z,78.15
2018-06-04T07:02:30.322Z,78.34
2018-06-04T07:03:30.361Z,77.96
2018-06-04T07:04:30.386Z,79.02
2018-06-04T07:05:30.414Z,78.73
2018-06-04T07:06:30.452Z,78.15
2018-06-04T07:07:30.523Z,77.28
2018-06-04T07:08:30.502Z,78.00
2018-06-04T07:09:30.536Z,78.73
2018-06-04T07:10:30.566Z,78.83
2018-06-04T07:11:30.595Z,78.15
2018-06-04T07:12:30.629Z,74.48
2018-06-04T07:13:30.674Z,74.62
2018-06-04T07:14:30.719Z,76.84
2018-06-04T07:15:30.720Z,77.80
2018-06-04T07:16:30.760Z,76.93
2018-06-04T07:17:30.784Z,77.42
2018-06-04T07:18:30.805Z,77.42
2018-06-04T07:19:30.832Z,77.13
2018-06-04T07:20:30.864Z,77.32
2018-06-04T07:21:30.959Z,76.74
2018-06-04T07:22:30.929Z,76.74
2018-06-04T07:23:30.956Z,76.84
2018-06-04T07:24:30.993Z,76.93
2018-06-04T07:25:31.026Z,76.74
2018-06-04T07:26:31.055Z,76.39
2018-06-04T07:27:31.085Z,77.03
2018-06-04T07:28:31.115Z,74.23
2018-06-04T07:29:31.139Z,73.65
2018-06-04T07:30:31.175Z,73.46
2018-06-04T07:31:31.198Z,72.78
2018-06-04T07:32:31.234Z,72.88
2018-06-04T07:33:31.268Z,73.46
2018-06-04T07:34:31.314Z,75.10
2018-06-04T07:35:31.336Z,74.23
2018-06-04T07:36:31.351Z,75.20
2018-06-04T07:37:31.381Z,75.39
2018-06-04T07:38:31.412Z,75.48
2018-06-04T07:39:31.456Z,74.71
2018-06-04T07:40:31.484Z,73.55
2018-06-04T07:41:31.498Z,72.78
2018-06-04T07:42:31.546Z,74.71
2018-06-04T07:43:31.574Z,73.30
2018-06-04T07:44:31.621Z,73.30
2018-06-04T07:45:31.622Z,73.68
2018-06-04T07:46:31.663Z,73.01
2018-06-04T07:47:31.691Z,72.14
2018-06-04T07:48:31.715Z,71.33
2018-06-04T07:49:32.651Z,71.91
2018-06-04T07:50:31.777Z,71.52
2018-06-04T07:51:31.809Z,70.94
2018-06-04T07:52:31.842Z,71.23
2018-06-04T07:53:31.880Z,71.23
2018-06-04T07:54:31.911Z,71.23
2018-06-04T07:55:31.928Z,71.33
2018-06-04T07:56:31.960Z,71.23
2018-06-04T07:57:32.001Z,72.20
2018-06-04T07:58:32.020Z,71.56
2018-06-04T07:59:32.055Z,73.55
2018-06-04T08:00:32.118Z,73.01
2018-06-04T08:01:32.115Z,72.68
2018-06-04T08:02:32.200Z,71.04
2018-06-04T08:03:32.171Z,72.24
2018-06-04T08:04:32.203Z,71.94
2018-06-04T08:05:32.240Z,71.46
2018-06-04T08:06:32.318Z,70.50
2018-06-04T08:07:32.318Z,70.04
2018-06-04T08:08:32.337Z,69.37
2018-06-04T08:09:32.360Z,69.37
2018-06-04T08:10:32.479Z,69.56
2018-06-04T08:11:32.420Z,69.95
2018-06-04T08:12:32.445Z,69.08
2018-06-04T08:13:32.493Z,69.46
2018-06-04T08:14:32.505Z,69.66
2018-06-04T08:15:32.537Z,68.98
2018-06-04T08:16:32.569Z,68.79
2018-06-04T08:17:32.611Z,68.21
2018-06-04T08:18:32.643Z,67.91
2018-06-04T08:19:32.654Z,68.79
2018-06-04T08:20:32.696Z,68.30
2018-06-04T08:21:32.718Z,67.91
2018-06-04T08:22:32.747Z,68.11
2018-06-04T08:23:32.785Z,68.01
2018-06-04T08:24:32.842Z,68.73
2018-06-04T08:25:32.840Z,68.73
2018-06-04T08:26:32.872Z,67.46
2018-06-04T08:27:32.908Z,67.27
2018-06-04T08:28:32.936Z,67.76
2018-06-04T08:29:32.964Z,67.63
2018-06-04T08:30:33.005Z,67.82
2018-06-04T08:31:33.040Z,68.01
2018-06-04T08:32:33.120Z,68.88
2018-06-04T08:33:33.087Z,69.46
2018-06-04T08:34:33.116Z,68.69
2018-06-04T08:35:33.150Z,68.49
2018-06-04T08:36:33.183Z,68.82
2018-06-04T08:37:33.225Z,68.43
2018-06-04T08:38:33.291Z,67.56
2018-06-04T08:39:33.290Z,67.37
2018-06-04T08:40:33.310Z,68.53
2018-06-04T08:41:33.345Z,69.89
2018-06-04T08:42:33.364Z,70.86
2018-06-04T08:43:33.398Z,69.50
2018-06-04T08:44:33.423Z,67.76
2018-06-04T08:45:33.494Z,67.56
2018-06-04T08:46:33.482Z,67.18
2018-06-04T08:47:33.520Z,67.21
2018-06-04T08:48:33.557Z,66.14
2018-06-04T08:49:33.606Z,65.85
2018-06-04T08:50:33.609Z,65.75
2018-06-04T08:51:33.660Z,66.72
2018-06-04T08:52:33.677Z,65.47
2018-06-04T08:53:33.699Z,65.75
2018-06-04T08:54:33.741Z,64.79
2018-06-04T08:55:33.775Z,65.27
2018-06-04T08:56:33.802Z,65.37
2018-06-04T08:57:33.824Z,65.82
2018-06-04T08:58:33.856Z,67.08
2018-06-04T08:59:33.884Z,68.43
2018-06-04T09:00:34.035Z,68.11
2018-06-04T09:01:33.948Z,69.21
2018-06-04T09:02:33.981Z,68.01
2018-06-04T09:03:34.028Z,68.69
2018-06-04T09:04:34.045Z,69.27
2018-06-04T09:05:34.077Z,68.79
2018-06-04T09:06:34.100Z,68.33
2018-06-04T09:07:34.142Z,67.85
2018-06-04T09:08:34.163Z,67.60
2018-06-04T09:09:34.206Z,67.21
2018-06-04T09:10:34.222Z,67.30
2018-06-04T09:11:34.259Z,67.50
2018-06-04T09:12:34.291Z,67.02
2018-06-04T09:13:34.331Z,66.92
2018-06-04T09:14:34.343Z,66.82
2018-06-04T09:15:34.376Z,66.24
2018-06-04T09:16:34.415Z,66.14
2018-06-04T09:17:34.438Z,65.08
2018-06-04T09:18:34.478Z,65.47
2018-06-04T09:19:34.501Z,65.95
2018-06-04T09:20:34.539Z,66.78
2018-06-04T09:21:34.600Z,66.78
2018-06-04T09:22:34.603Z,67.37
2018-06-04T09:23:34.623Z,66.78
2018-06-04T09:24:34.655Z,67.37
2018-06-04T09:25:34.688Z,66.78
2018-06-04T09:26:34.728Z,66.40
2018-06-04T09:27:34.769Z,65.66
2018-06-04T09:28:34.799Z,65.17
2018-06-04T09:29:34.808Z,65.20
2018-06-04T09:30:34.838Z,64.34
2018-06-04T09:31:34.870Z,63.85
2018-06-04T09:32:34.908Z,63.46
2018-06-04T09:33:34.966Z,62.52
2018-06-04T09:34:34.962Z,63.30
2018-06-04T09:35:34.996Z,62.88
2018-06-04T09:36:35.032Z,62.98
2018-06-04T09:37:35.060Z,63.56
2018-06-04T09:38:35.086Z,64.34
2018-06-04T09:39:35.127Z,64.04
2018-06-04T09:40:35.150Z,65.01
2018-06-04T09:41:35.179Z,65.11
2018-06-04T09:42:35.211Z,64.85
2018-06-04T09:43:35.243Z,63.65
2018-06-04T09:44:35.293Z,64.14
2018-06-04T09:45:35.312Z,65.11
2018-06-04T09:46:35.341Z,65.20
2018-06-04T09:47:35.374Z,65.56
2018-06-04T09:48:35.402Z,65.50
2018-06-04T09:49:35.441Z,65.82
2018-06-04T09:50:35.464Z,64.85
2018-06-04T09:51:35.491Z,63.43
2018-06-04T09:52:35.524Z,64.01
2018-06-04T09:53:35.582Z,62.78
2018-06-04T09:54:35.589Z,64.17
2018-06-04T09:55:35.615Z,65.95
2018-06-04T09:56:35.647Z,61.68
2018-06-04T09:57:35.686Z,60.58
2018-06-04T09:58:35.819Z,60.02
2018-06-04T09:59:35.740Z,60.00
2018-06-04T10:00:35.776Z,60.06
2018-06-04T10:01:35.802Z,60.42
2018-06-04T10:02:35.841Z,60.68
2018-06-04T10:03:35.880Z,61.10
2018-06-04T10:04:35.938Z,60.35
2018-06-04T10:05:35.935Z,60.38
2018-06-04T10:06:35.962Z,59.44
2018-06-04T10:07:36.002Z,58.40
2018-06-04T10:08:36.046Z,57.53
2018-06-04T10:09:36.099Z,57.14
2018-06-04T10:10:36.084Z,58.86
2018-06-04T10:11:36.122Z,58.40
2018-06-04T10:12:36.151Z,57.92
2018-06-04T10:13:36.182Z,57.23
2018-06-04T10:14:36.222Z,56.46
2018-06-04T10:15:36.247Z,56.12
2018-06-04T10:16:36.276Z,55.47
2018-06-04T10:17:36.307Z,55.25
2018-06-04T10:18:36.434Z,55.41
2018-06-04T10:19:36.371Z,55.74
2018-06-04T10:20:36.404Z,55.76
2018-06-04T10:21:36.438Z,55.08
2018-06-04T10:22:36.521Z,54.96
2018-06-04T10:23:36.506Z,54.79
2018-06-04T10:24:36.550Z,54.52
2018-06-04T10:25:36.559Z,57.99
2018-06-04T10:26:36.601Z,56.56
2018-06-04T10:27:36.632Z,54.01
2018-06-04T10:28:36.658Z,55.41
2018-06-04T10:29:36.693Z,55.83
2018-06-04T10:30:36.739Z,56.64
2018-06-04T10:31:36.753Z,55.51
2018-06-04T10:32:36.792Z,55.78
2018-06-04T10:33:36.844Z,57.11
2018-06-04T10:34:36.853Z,57.76
2018-06-04T10:35:36.880Z,59.25
2018-06-04T10:36:36.912Z,60.35
2018-06-04T10:37:36.951Z,57.82
2018-06-04T10:38:36.978Z,57.59
2018-06-04T10:39:37.007Z,56.15
2018-06-04T10:40:37.074Z,54.82
2018-06-04T10:41:37.080Z,54.30
2018-06-04T10:42:37.109Z,54.03
2018-06-04T10:43:37.132Z,53.94
2018-06-04T10:44:37.169Z,54.11
2018-06-04T10:45:37.204Z,53.62
2018-06-04T10:46:37.300Z,53.94
2018-06-04T10:47:37.266Z,52.87
2018-06-04T10:48:37.303Z,52.04
2018-06-04T10:49:37.338Z,50.63
2018-06-04T10:50:37.365Z,49.56
2018-06-04T10:51:37.396Z,50.60
2018-06-04T10:52:37.432Z,50.87
2018-06-04T10:53:37.461Z,50.38
2018-06-04T10:54:37.497Z,51.51
2018-06-04T10:55:37.537Z,53.78
2018-06-04T10:56:37.615Z,51.39
2018-06-04T10:57:37.662Z,52.69
2018-06-04T10:58:37.633Z,53.25
2018-06-04T10:59:37.662Z,52.51
2018-06-04T11:00:37.697Z,51.07
2018-06-04T11:01:37.726Z,52.73
2018-06-04T11:02:37.775Z,55.46
2018-06-04T11:03:37.792Z,52.46
2018-06-04T11:04:37.820Z,53.71
2018-06-04T11:05:37.871Z,51.34
2018-06-04T11:06:37.907Z,50.71
2018-06-04T11:07:37.923Z,48.21
2018-06-04T11:08:37.951Z,48.21
2018-06-04T11:09:37.991Z,45.86
2018-06-04T11:10:38.018Z,44.20
2018-06-04T11:11:38.055Z,44.42
2018-06-04T11:12:38.085Z,44.38
2018-06-04T11:13:38.131Z,46.82
2018-06-04T11:14:38.201Z,47.36
2018-06-04T11:15:38.190Z,46.50
2018-06-04T11:16:38.270Z,46.82
2018-06-04T11:17:38.259Z,48.36
2018-06-04T11:18:38.294Z,46.50
2018-06-04T11:19:38.342Z,45.92
2018-06-04T11:20:38.361Z,48.17
2018-06-04T11:21:38.398Z,50.73
2018-06-04T11:22:38.436Z,52.36
2018-06-04T11:23:38.458Z,53.14
2018-06-04T11:24:38.492Z,54.71
2018-06-04T11:25:38.533Z,55.32
2018-06-04T11:26:38.561Z,54.71
2018-06-04T11:27:38.600Z,54.90
2018-06-04T11:28:38.624Z,55.46
2018-06-04T11:29:38.659Z,55.68
2018-06-04T11:30:38.693Z,56.95
2018-06-04T11:31:38.732Z,57.17
2018-06-04T11:32:38.791Z,58.95
2018-06-04T11:33:38.792Z,55.41
2018-06-04T11:34:38.832Z,54.71
2018-06-04T11:35:38.859Z,55.68
2018-06-04T11:36:38.907Z,56.14
2018-06-04T11:37:38.923Z,56.26
2018-06-04T11:38:38.950Z,57.23
2018-06-04T11:39:38.985Z,59.79
2018-06-04T11:40:39.025Z,57.56
2018-06-04T11:41:39.045Z,57.65
2018-06-04T11:42:39.085Z,58.82
2018-06-04T11:43:39.131Z,56.16
2018-06-04T11:44:39.157Z,56.26
2018-06-04T11:45:39.186Z,55.98
2018-06-04T11:46:39.216Z,56.10
2018-06-04T11:47:39.245Z,56.07
2018-06-04T11:48:39.276Z,56.62
2018-06-04T11:49:39.308Z,57.01
2018-06-04T11:50:39.354Z,57.21
2018-06-04T11:51:39.376Z,57.28
2018-06-04T11:52:39.404Z,57.96
2018-06-04T11:53:39.435Z,57.96
2018-06-04T11:54:39.476Z,58.25
2018-06-04T11:55:39.502Z,58.54
2018-06-04T11:56:39.546Z,57.28
2018-06-04T11:57:39.575Z,57.67
2018-06-04T11:58:39.625Z,57.50
2018-06-04T11:59:39.631Z,60.22
2018-06-04T12:00:39.706Z,59.34
2018-06-04T12:01:39.824Z,56.98
2018-06-04T12:02:39.732Z,57.57
2018-06-04T12:03:39.759Z,57.86
2018-06-04T12:04:39.790Z,57.86
2018-06-04T12:05:39.825Z,60.58
2018-06-04T12:06:39.857Z,61.00
2018-06-04T12:07:39.904Z,59.54
2018-06-04T12:08:39.919Z,60.12
2018-06-04T12:09:39.957Z,57.57
2018-06-04T12:10:40.012Z,60.58
2018-06-04T12:11:40.056Z,59.83
2018-06-04T12:12:40.053Z,59.44
2018-06-04T12:13:40.078Z,56.40
2018-06-04T12:14:40.107Z,57.18
2018-06-04T12:15:40.150Z,57.28
2018-06-04T12:16:40.180Z,57.08
2018-06-04T12:17:40.224Z,57.08
2018-06-04T12:18:40.242Z,57.67
2018-06-04T12:19:40.267Z,57.08
2018-06-04T12:20:40.304Z,57.67
2018-06-04T12:21:40.374Z,58.08
2018-06-04T12:22:40.374Z,60.71
2018-06-04T12:23:40.402Z,56.60
2018-06-04T12:24:40.441Z,56.70
2018-06-04T12:25:40.455Z,57.08
2018-06-04T12:26:40.492Z,56.79
2018-06-04T12:27:40.537Z,57.67
2018-06-04T12:28:40.557Z,57.76
2018-06-04T12:29:40.609Z,57.73
2018-06-04T12:30:40.628Z,58.03
2018-06-04T12:31:40.698Z,59.58
2018-06-04T12:32:40.727Z,58.70
2018-06-04T12:33:40.745Z,58.61
2018-06-04T12:34:40.765Z,57.73
2018-06-04T12:35:40.791Z,57.44
2018-06-04T12:36:40.812Z,57.25
2018-06-04T12:37:40.864Z,57.06
2018-06-04T12:38:40.890Z,58.22
2018-06-04T12:39:40.915Z,59.41
2018-06-04T12:40:40.963Z,58.73
2018-06-04T12:41:41.019Z,59.41
2018-06-04T12:42:41.004Z,57.67
2018-06-04T12:43:41.030Z,57.25
2018-06-04T12:44:41.078Z,57.18
2018-06-04T12:45:41.108Z,56.98
2018-06-04T12:46:41.127Z,56.37
2018-06-04T12:47:41.175Z,56.47
2018-06-04T12:48:41.204Z,56.47
2018-06-04T12:49:41.245Z,56.37
2018-06-04T12:50:41.268Z,56.67
2018-06-04T12:51:41.304Z,56.47
2018-06-04T12:52:41.317Z,56.57